KDUA/DUA METAR and TAF weather

Enter ICAO airport designator
Station Type Date Time Source
KDUA METAR 2020/11/27 02:55 UTC NOAA

KDUA 270255Z AUTO 14004KT 10SM CLR 12/09 A2998 RMK AO2


Station Type Date Time Source
KDUA Decoded METAR 2020/11/27 02:55 UTC NOAA

Durant, Eaker Field Airport, OK, United States (KDUA) 33-56-32N 096-23-40W
Nov 26, 2020 - 09:55 PM EST / 2020.11.27 0255 UTC
Wind: from the SE (140 degrees) at 5 MPH (4 KT):0
Visibility: 10 mile(s):0
Sky conditions: clear
Temperature: 53 F (12 C)
Dew Point: 48 F (9 C)
Relative Humidity: 81%
Pressure (altimeter): 29.98 in. Hg (1015 hPa)
ob: KDUA 270255Z AUTO 14004KT 10SM CLR 12/09 A2998 RMK AO2
cycle: 3

Station Type Date Time Source
KDUA TAF UTC NOAA

Error!

Example: see airport list